LFMH METAR and TAF | Updated Today

LFMH METAR

Saint-Étienne-Bouthéon Airport

Observation time: 17 min. ago

LFMH 060900Z AUTO 00000KT 9999 BKN008 BKN013 OVC018 01/01 Q1016

Need help? Read our tutorial on how to read METARs or read the parsed version below.

Saint-Étienne-Bouthéon Airport (LFMH) METAR

  • Weather conditions on Mon, 06 Dec 2021 09:00:00 +0000 (17 min. ago):
  • Present conditions: Dry
  • Clouds: Broken sky at 244 meters; broken sky at 396 meters; overcast sky at 549 meters
  • Visibility: Greater than 10 km
  • Wind: Calm
  • Temperature: 1 celsius
  • Dew point: 1 celsius
  • Pressure: 1016 millibars
  • Remarks: None


Useful to know...

  • Codes: LFMH/EBU
  • Airport elevation: 1325ft
  • Municipality: Saint-Étienne/Bouthéon
  • Country: France
  • Continent: Europe
  • Wikipedia page